Kimballton, Iowa
Current Conditions -  °F | °C
As of 12:15 PM on Friday 31 Oct 2014 (Local Time) from KADU Reporting Station
Clear Clear  
Wind Chill: 30°   Ceiling: Unl
Heat Index: 37°   Visibility: 10mi
Dew Point: 16°   Wind: 12mph
Humidity: 41%   Direction: 360°N
Pressure: 30.54"   Gusts: NA
Location:  41.63°N, 95.07°W
Report Text: KADU 311715Z AUTO 36010KT 10SM CLR 03/M09 A3054 RMK AO2
Loading
Personal Weather Stations






























Interactive Weather Map
Tropical Storm Tracking
New forecast layout! Learn more

10-Day Weather Forecast

Advertisements
Track Severe Weather on mobile